Time;durP1;ratioP1;P1;durP2;ratioP2;P2;SDS_P1;SDS_P2;PMS_P1;PMS_P2;Temp;Humidity;BMP_temperature;BMP_pressure;BME280_temperature;BME280_humidity;BME280_pressure;Samples;Min_cycle;Max_cycle;Signal;HPM_P1;HPM_P2
2024/01/05 00:00:40;;;;;;;12.85;6.00;;;;;;;-10.25;72.44;95544.75;6246960;28;20099;-67
2024/01/05 00:03:48;;;;;;;7.45;4.13;;;;;;;-10.12;72.56;95543.00;6247029;28;20042;-68
2024/01/05 00:06:55;;;;;;;6.15;4.10;;;;;;;-10.12;71.22;95543.00;6246812;28;20140;-67
2024/01/05 00:10:01;;;;;;;6.47;3.65;;;;;;;-9.98;72.34;95541.19;6246632;28;20045;-67
2024/01/05 00:13:07;;;;;;;8.50;4.68;;;;;;;-9.79;71.45;95561.44;6246487;28;20538;-68
2024/01/05 00:16:19;;;;;;;10.27;6.53;;;;;;;-9.72;71.14;95550.34;6245590;28;20049;-67
2024/01/05 00:19:23;;;;;;;11.82;5.55;;;;;;;-9.65;71.42;95564.75;6246403;28;20056;-66
2024/01/05 00:22:24;;;;;;;11.07;4.68;;;;;;;-9.70;71.72;95561.38;6245793;28;20569;-66
2024/01/05 00:25:28;;;;;;;;;;;;;;;-9.56;71.11;95556.19;6246633;28;20045;-66
2024/01/05 00:28:34;;;;;;;6.03;3.70;;;;;;;-9.62;71.19;95564.72;6246178;28;19921;-67
2024/01/05 00:31:39;;;;;;;10.77;5.88;;;;;;;-9.46;70.50;95564.56;6245314;28;20041;-66
2024/01/05 00:34:43;;;;;;;7.70;4.00;;;;;;;-9.42;70.15;95568.81;6228473;28;20048;-67
2024/01/05 00:37:49;;;;;;;7.85;4.82;;;;;;;-9.60;70.01;95568.06;6227815;28;20065;-67
2024/01/05 00:40:53;;;;;;;10.23;5.30;;;;;;;-9.65;70.10;95582.56;6246199;28;20419;-67
2024/01/05 00:43:56;;;;;;;8.63;5.00;;;;;;;-9.81;70.53;95563.16;6245848;28;20041;-67
2024/01/05 00:46:58;;;;;;;6.20;3.92;;;;;;;-9.68;70.46;95559.66;6227681;28;20140;-67
2024/01/05 00:50:05;;;;;;;10.82;5.80;;;;;;;-9.89;70.28;95550.47;6245661;28;20038;-67
2024/01/05 00:53:06;;;;;;;11.88;6.38;;;;;;;-9.87;70.57;95558.09;6244803;28;20640;-67
2024/01/05 00:56:08;;;;;;;7.07;4.32;;;;;;;-9.89;70.66;95570.00;6251741;28;20131;-69
2024/01/05 00:59:13;;;;;;;8.95;5.43;;;;;;;-10.13;70.24;95571.84;6269768;28;20060;-66
2024/01/05 01:02:19;;;;;;;11.93;5.53;;;;;;;-10.21;70.50;95569.31;6268751;28;20045;-67
2024/01/05 01:05:21;;;;;;;14.45;6.05;;;;;;;-10.17;70.22;95575.22;6270007;28;20408;-67
2024/01/05 01:08:29;;;;;;;6.40;4.70;;;;;;;-10.17;69.33;95562.50;6269914;28;20040;-69
2024/01/05 01:11:31;;;;;;;9.32;4.55;;;;;;;-10.33;69.42;95574.53;6269053;28;20076;-67
2024/01/05 01:14:32;;;;;;;7.18;3.38;;;;;;;-10.34;69.20;95577.06;6269560;28;20163;-68
2024/01/05 01:17:35;;;;;;;;;;;;;;;-10.23;68.88;95572.72;6270055;28;20048;-67
2024/01/05 01:20:40;;;;;;;10.30;5.68;;;;;;;-10.40;68.53;95578.78;6269551;28;19920;-67
2024/01/05 01:23:43;;;;;;;9.90;4.25;;;;;;;-10.53;68.77;95584.78;6268933;28;20049;-67
2024/01/05 01:26:47;;;;;;;8.55;5.47;;;;;;;-10.62;69.11;95587.34;6269216;28;20096;-67
2024/01/05 01:29:48;;;;;;;7.65;4.75;;;;;;;-10.77;69.38;95592.47;6269585;28;20037;-67
2024/01/05 01:32:52;;;;;;;;;;;;;;;-10.61;69.06;95594.13;6270119;28;20041;-66
2024/01/05 01:35:53;;;;;;;8.82;5.32;;;;;;;-10.73;68.78;95599.22;6269070;28;19917;-68
2024/01/05 01:38:54;;;;;;;8.65;4.53;;;;;;;-10.83;69.50;95597.56;6268222;28;20544;-67
2024/01/05 01:41:56;;;;;;;7.38;3.15;;;;;;;-10.87;69.76;95597.59;6268971;28;20563;-68
2024/01/05 01:45:02;;;;;;;7.78;4.07;;;;;;;-10.91;69.74;95590.81;6269191;28;20036;-67
2024/01/05 01:48:09;;;;;;;6.80;3.90;;;;;;;-10.89;69.97;95599.28;6268477;28;20089;-68
2024/01/05 01:51:12;;;;;;;9.23;4.70;;;;;;;-10.93;70.26;95597.56;6269441;28;20043;-67
2024/01/05 01:54:14;;;;;;;5.07;2.92;;;;;;;-10.55;69.38;95604.25;6267691;28;20055;-68
2024/01/05 01:57:17;;;;;;;8.38;5.25;;;;;;;-10.71;69.08;95597.53;6243687;28;20049;-67
2024/01/05 02:00:25;;;;;;;5.47;3.33;;;;;;;-10.85;69.30;95590.78;6244070;28;20049;-66
2024/01/05 02:03:27;;;;;;;10.80;3.85;;;;;;;-10.90;69.51;95592.53;6226067;28;20478;-68
2024/01/05 02:06:29;;;;;;;13.43;4.57;;;;;;;-10.93;69.68;95597.56;6243777;28;20057;-67
2024/01/05 02:09:35;;;;;;;5.28;2.97;;;;;;;-10.90;69.68;95596.72;6244213;28;20045;-66
2024/01/05 02:12:39;;;;;;;8.93;5.18;;;;;;;-10.86;69.52;95606.06;6243778;28;20041;-67
2024/01/05 02:15:40;;;;;;;4.97;3.30;;;;;;;-10.75;69.01;95613.66;6226120;28;20045;-66
2024/01/05 02:19:01;;;;;;;8.27;4.63;;;;;;;-10.56;68.29;95617.81;6226290;28;20041;-68
2024/01/05 02:22:04;;;;;;;5.93;3.05;;;;;;;-10.66;68.21;95626.31;6243414;28;20042;-67
2024/01/05 02:25:06;;;;;;;8.13;4.30;;;;;;;-10.75;67.79;95631.44;6243177;28;20057;-67
2024/01/05 02:28:09;;;;;;;9.32;4.40;;;;;;;-10.94;68.14;95628.91;6226088;28;20038;-67
2024/01/05 02:31:13;;;;;;;8.82;4.13;;;;;;;-10.98;68.68;95632.34;6243953;28;20033;-67
2024/01/05 02:34:14;;;;;;;5.78;4.13;;;;;;;-10.87;68.51;95622.13;6225854;28;20511;-67
2024/01/05 02:37:16;;;;;;;7.95;3.63;;;;;;;-11.09;68.18;95639.13;6243782;28;20036;-67
2024/01/05 02:40:19;;;;;;;10.57;5.60;;;;;;;-11.09;68.61;95639.13;6243945;28;20503;-67
2024/01/05 02:43:21;;;;;;;11.27;5.07;;;;;;;-11.03;68.74;95636.56;6243370;28;20041;-67
2024/01/05 02:46:22;;;;;;;6.32;4.07;;;;;;;-10.97;68.68;95650.97;6243429;28;20045;-66
2024/01/05 02:49:25;;;;;;;5.18;3.75;;;;;;;-10.96;68.90;95662.78;6243611;28;20662;-66
2024/01/05 02:52:27;;;;;;;7.55;4.70;;;;;;;-10.99;68.83;95657.72;6242557;28;20056;-66
2024/01/05 02:55:28;;;;;;;4.28;2.90;;;;;;;-11.05;69.46;95656.03;6242434;28;20056;-66
2024/01/05 02:58:34;;;;;;;6.30;3.90;;;;;;;-11.00;69.59;95648.41;6242993;28;20049;-67
2024/01/05 03:01:38;;;;;;;8.35;5.25;;;;;;;-10.95;69.26;95662.81;6247519;28;20049;-68
2024/01/05 03:04:43;;;;;;;10.23;5.13;;;;;;;-11.04;69.30;95670.41;6247526;28;20050;-68
2024/01/05 03:07:48;;;;;;;7.55;4.93;;;;;;;-10.89;69.14;95672.13;6247679;28;20056;-66
2024/01/05 03:10:53;;;;;;;4.30;2.83;;;;;;;-10.80;68.79;95673.81;6230023;28;20045;-67
2024/01/05 03:13:55;;;;;;;7.22;4.00;;;;;;;-10.77;68.45;95673.78;6247351;28;20053;-68
2024/01/05 03:17:02;;;;;;;9.63;4.18;;;;;;;-10.85;68.63;95678.88;6230570;28;20038;-67
2024/01/05 03:20:04;;;;;;;7.32;4.72;;;;;;;-10.92;69.05;95690.75;6247414;28;20419;-67
2024/01/05 03:23:05;;;;;;;6.82;3.58;;;;;;;-10.85;68.55;95681.41;6247676;28;20071;-67
2024/01/05 03:26:09;;;;;;;5.60;3.20;;;;;;;-10.82;69.17;95681.41;6247389;28;20057;-67
2024/01/05 03:29:11;;;;;;;6.65;4.30;;;;;;;-10.85;68.96;95682.25;6229600;28;20049;-67
2024/01/05 03:32:15;;;;;;;8.20;4.47;;;;;;;-10.93;69.00;95683.94;6247437;28;20175;-67
2024/01/05 03:35:16;;;;;;;8.85;4.55;;;;;;;-10.60;68.80;95702.56;6247138;28;20096;-67
2024/01/05 03:38:22;;;;;;;8.05;3.30;;;;;;;-10.46;68.50;95711.00;6247910;28;20042;-67
2024/01/05 03:41:24;;;;;;;9.38;4.45;;;;;;;-10.55;68.05;95695.78;6229312;28;20053;-67
2024/01/05 03:44:26;;;;;;;11.82;4.70;;;;;;;-10.48;67.78;95712.69;6229406;28;20049;-67
2024/01/05 03:47:34;;;;;;;3.63;2.47;;;;;;;-10.60;68.23;95712.72;6246895;28;20475;-68
2024/01/05 03:50:40;;;;;;;8.45;4.53;;;;;;;-10.71;68.44;95709.34;6246125;28;20056;-67
2024/01/05 03:53:44;;;;;;;9.18;4.57;;;;;;;-10.95;67.75;95720.41;6261438;28;20136;-67
2024/01/05 03:56:52;;;;;;;5.75;3.38;;;;;;;-10.74;68.41;95725.44;6271633;28;20517;-67
2024/01/05 03:59:56;;;;;;;4.45;3.45;;;;;;;-10.78;68.52;95717.81;6271703;28;20037;-67
2024/01/05 04:02:57;;;;;;;12.27;4.75;;;;;;;-10.93;68.70;95719.53;6271462;28;20037;-67
2024/01/05 04:06:03;;;;;;;7.18;3.55;;;;;;;-10.83;68.09;95719.53;6270422;28;20055;-68
2024/01/05 04:09:10;;;;;;;4.65;3.20;;;;;;;-11.03;67.97;95733.09;6271572;28;20087;-67
2024/01/05 04:12:17;;;;;;;4.43;2.25;;;;;;;-11.16;68.81;95726.31;6270040;28;20044;-67
2024/01/05 04:15:22;;;;;;;4.55;3.22;;;;;;;-11.07;68.73;95741.53;6271392;28;20059;-67
2024/01/05 04:18:26;;;;;;;5.82;3.40;;;;;;;-11.03;68.77;95722.94;6271105;28;20041;-68
2024/01/05 04:21:30;;;;;;;9.05;4.43;;;;;;;-11.03;68.50;95732.25;6252687;28;20534;-68
2024/01/05 04:24:32;;;;;;;;;;;;;;;-10.91;68.00;95747.47;6236557;28;20142;-68
2024/01/05 04:27:33;;;;;;;9.55;3.72;;;;;;;-11.12;68.45;95743.25;6270899;28;20283;-68
2024/01/05 04:30:40;;;;;;;6.38;3.67;;;;;;;-11.01;68.45;95753.41;6270241;28;20052;-67
2024/01/05 04:33:44;;;;;;;4.22;2.83;;;;;;;-10.79;68.23;95746.63;6270864;28;20037;-67
2024/01/05 04:36:45;;;;;;;9.20;4.40;;;;;;;-11.00;68.82;95752.56;6270661;28;20456;-67
2024/01/05 04:39:49;;;;;;;6.25;3.75;;;;;;;-10.78;68.70;95753.41;6270551;28;20517;-66
2024/01/05 04:42:53;;;;;;;;;;;;;;;-10.64;68.17;95742.41;6270826;28;20036;-67
2024/01/05 04:45:54;;;;;;;8.65;3.65;;;;;;;-10.62;68.22;95755.09;6269580;28;19921;-67
2024/01/05 04:48:57;;;;;;;4.05;2.35;;;;;;;-10.55;68.07;95754.25;6269791;28;20045;-67
2024/01/05 04:51:58;;;;;;;8.02;4.00;;;;;;;-10.60;68.10;95745.78;6269197;28;20131;-68
2024/01/05 04:55:03;;;;;;;;;;;;;;;-10.34;68.26;95749.97;6246018;28;20049;-68
2024/01/05 04:58:07;;;;;;;3.88;2.88;;;;;;;-10.33;67.79;95756.75;6245381;28;19924;-67
2024/01/05 05:01:08;;;;;;;3.70;2.30;;;;;;;-10.24;67.89;95757.56;6244441;28;20422;-67
2024/01/05 05:04:17;;;;;;;11.43;4.80;;;;;;;-10.30;67.68;95757.59;6244564;28;20103;-67
2024/01/05 05:07:21;;;;;;;3.90;1.65;;;;;;;-10.27;67.89;95752.50;6245275;28;20046;-68
2024/01/05 05:10:23;;;;;;;6.68;4.30;;;;;;;-10.31;67.56;95767.78;6245161;28;20038;-67
2024/01/05 05:13:26;;;;;;;6.53;3.90;;;;;;;-10.30;67.90;95757.59;6244868;28;20041;-67
2024/01/05 05:16:28;;;;;;;6.30;4.03;;;;;;;-10.38;68.34;95768.66;6244282;28;20048;-67
2024/01/05 05:19:33;;;;;;;;;;;;;;;-10.23;67.82;95766.03;6245568;28;20041;-66
2024/01/05 05:22:34;;;;;;;3.38;2.85;;;;;;;-10.31;68.26;95773.69;6244767;28;20437;-68
2024/01/05 05:25:38;;;;;;;5.95;3.83;;;;;;;-10.23;67.47;95773.66;6244792;28;20042;-67
2024/01/05 05:28:44;;;;;;;;;;;;;;;-10.29;67.41;95779.63;6245165;28;20041;-67
2024/01/05 05:31:52;;;;;;;5.82;2.97;;;;;;;-10.27;66.19;95779.66;6244680;28;19921;-67
2024/01/05 05:34:54;;;;;;;2.80;1.95;;;;;;;-10.36;66.09;95777.09;6244220;28;20045;-67
2024/01/05 05:37:59;;;;;;;2.63;2.08;;;;;;;-10.56;66.62;95785.59;6244322;28;20073;-66
2024/01/05 05:41:03;;;;;;;5.70;3.30;;;;;;;-10.63;66.63;95789.00;6244964;28;20061;-66
2024/01/05 05:44:04;;;;;;;9.30;4.72;;;;;;;-10.73;66.29;95782.22;6259199;28;20132;-67
2024/01/05 05:47:09;;;;;;;4.22;3.30;;;;;;;-10.67;66.02;95782.19;6243879;28;20064;-68
2024/01/05 05:50:13;;;;;;;3.47;2.28;;;;;;;-10.65;66.36;95800.84;6244565;28;20079;-68
2024/01/05 05:53:18;;;;;;;4.75;2.58;;;;;;;-10.69;65.80;95794.94;6243082;28;20049;-67
2024/01/05 05:56:22;;;;;;;4.72;3.05;;;;;;;-10.78;65.98;95800.00;6243405;28;20136;-67
2024/01/05 05:59:29;;;;;;;6.57;3.95;;;;;;;-10.75;66.07;95815.25;6244276;28;20045;-68
2024/01/05 06:02:33;;;;;;;5.55;2.85;;;;;;;-10.52;66.02;95814.41;6226158;28;20045;-67
2024/01/05 06:05:35;;;;;;;4.75;2.75;;;;;;;-10.65;65.86;95816.09;6243568;28;20059;-68
2024/01/05 06:08:42;;;;;;;6.72;3.88;;;;;;;-10.58;66.23;95817.81;6243721;28;20049;-68
2024/01/05 06:11:49;;;;;;;5.35;2.50;;;;;;;-10.53;65.91;95811.03;6243953;28;20055;-68
2024/01/05 06:14:54;;;;;;;6.57;3.28;;;;;;;-10.50;65.96;95815.25;6243614;28;20056;-68
2024/01/05 06:17:55;;;;;;;9.95;4.30;;;;;;;-10.48;66.04;95824.56;6243129;28;20053;-66
2024/01/05 06:20:59;;;;;;;;;;;;;;;-10.32;66.08;95819.50;6244166;28;20414;-67
2024/01/05 06:24:00;;;;;;;4.22;2.78;;;;;;;-10.38;65.58;95815.25;6243139;28;19940;-67
2024/01/05 06:27:02;;;;;;;4.88;2.63;;;;;;;-10.53;65.99;95808.50;6243580;28;20423;-68
2024/01/05 06:30:09;;;;;;;5.97;3.35;;;;;;;-10.49;66.00;95812.72;6243897;28;20045;-68
2024/01/05 06:33:11;;;;;;;7.40;3.53;;;;;;;-10.41;64.71;95823.72;6242765;28;20434;-67
2024/01/05 06:36:15;;;;;;;5.72;3.47;;;;;;;-10.19;65.68;95827.09;6247933;28;20057;-67
2024/01/05 06:39:19;;;;;;;;;;;;;;;-10.28;65.50;95839.81;6248930;28;20422;-67
2024/01/05 06:42:22;;;;;;;7.63;3.40;;;;;;;-10.31;65.96;95846.59;6230464;28;19927;-68
2024/01/05 06:45:26;;;;;;;5.85;4.13;;;;;;;-10.20;65.55;95844.88;6248217;28;20148;-68
2024/01/05 06:48:47;;;;;;;11.80;4.80;;;;;;;-10.24;65.89;95843.19;6248370;28;20102;-68
2024/01/05 06:51:49;;;;;;;4.13;3.08;;;;;;;-10.27;65.62;95854.25;6247783;28;20060;-68
2024/01/05 06:54:51;;;;;;;4.68;2.35;;;;;;;-10.07;65.35;95835.56;6247397;28;20452;-67
2024/01/05 06:57:53;;;;;;;10.13;4.45;;;;;;;-10.07;65.63;95835.56;6247469;28;20049;-69
2024/01/05 07:01:01;;;;;;;8.88;4.65;;;;;;;-9.95;65.23;95846.53;6248243;28;20042;-70
2024/01/05 07:04:03;;;;;;;5.10;3.72;;;;;;;-9.86;65.51;95849.91;6247465;28;20053;-67
2024/01/05 07:07:08;;;;;;;7.45;4.07;;;;;;;-9.75;64.97;95843.09;6230929;28;20049;-68
2024/01/05 07:10:11;;;;;;;2.93;2.10;;;;;;;-9.50;64.40;95849.81;6247256;28;20049;-68
2024/01/05 07:13:14;;;;;;;4.88;2.95;;;;;;;-9.36;63.01;95857.41;6247891;28;20444;-68
2024/01/05 07:16:19;;;;;;;6.35;3.65;;;;;;;-9.43;62.81;95862.53;6247857;28;20041;-67
2024/01/05 07:19:24;;;;;;;4.13;2.65;;;;;;;-9.40;62.48;95860.81;6246808;28;20060;-67
2024/01/05 07:22:29;;;;;;;6.63;3.83;;;;;;;-9.47;62.07;95854.06;6246830;28;20049;-68
2024/01/05 07:25:30;;;;;;;6.47;3.40;;;;;;;-9.57;63.02;95845.59;6247000;28;20045;-68
2024/01/05 07:28:32;;;;;;;6.65;4.35;;;;;;;-9.65;63.57;95857.50;6229086;28;20637;-67
2024/01/05 07:31:38;;;;;;;10.60;5.95;;;;;;;-9.54;63.61;95853.25;6247126;28;20057;-67
2024/01/05 07:34:46;;;;;;;5.78;3.58;;;;;;;-9.32;63.11;95845.50;6248294;28;20053;-68
2024/01/05 07:37:48;;;;;;;5.47;2.90;;;;;;;-9.34;62.75;95847.19;6246569;28;20457;-67
2024/01/05 07:40:49;;;;;;;6.70;3.92;;;;;;;-9.40;62.99;95848.06;6246038;28;20518;-69
2024/01/05 07:43:53;;;;;;;8.82;4.60;;;;;;;-9.40;62.59;95829.41;6228877;28;20053;-69
2024/01/05 07:46:57;;;;;;;7.88;4.78;;;;;;;-9.52;63.16;95846.41;6227179;28;20060;-67
2024/01/05 07:49:59;;;;;;;;;;;;;;;-9.52;61.22;95845.56;6246297;28;20083;-67
2024/01/05 07:53:06;;;;;;;6.95;4.03;;;;;;;-9.55;63.50;95846.44;6246977;28;19921;-67
2024/01/05 07:56:10;;;;;;;9.63;4.18;;;;;;;-9.33;62.73;95856.56;6246818;28;20061;-67
2024/01/05 07:59:12;;;;;;;7.25;3.08;;;;;;;-9.28;62.79;95844.66;6246300;28;20102;-69
2024/01/05 08:02:19;;;;;;;8.38;4.10;;;;;;;-9.15;62.84;95851.38;6246692;28;20041;-67
2024/01/05 08:05:20;;;;;;;4.95;3.13;;;;;;;-9.11;62.56;95852.22;6245635;28;20052;-67
2024/01/05 08:08:25;;;;;;;4.85;2.55;;;;;;;-9.14;62.64;95847.97;6245766;28;20554;-68
2024/01/05 08:11:29;;;;;;;5.70;3.25;;;;;;;-9.14;62.61;95847.09;6246386;28;20423;-68
2024/01/05 08:14:37;;;;;;;6.95;4.00;;;;;;;-9.19;62.35;95846.31;6246440;28;20041;-68
2024/01/05 08:17:41;;;;;;;6.97;3.58;;;;;;;-9.06;62.91;95848.78;6245676;28;20084;-67
2024/01/05 08:20:45;;;;;;;6.45;3.78;;;;;;;-8.95;62.19;95847.88;6245865;28;20573;-68
2024/01/05 08:23:49;;;;;;;6.53;4.07;;;;;;;-9.09;61.95;95851.34;6228017;28;20116;-68
2024/01/05 08:26:51;;;;;;;6.60;3.45;;;;;;;-9.13;61.84;95848.81;6245423;28;20053;-67
2024/01/05 08:29:52;;;;;;;9.00;4.45;;;;;;;-9.09;62.28;95847.94;6245408;28;20045;-68
2024/01/05 08:32:54;;;;;;;6.55;3.97;;;;;;;-9.10;62.72;95849.66;6228427;28;20183;-67
2024/01/05 08:35:58;;;;;;;6.13;3.75;;;;;;;-9.09;63.05;95838.59;6245870;28;20041;-68
2024/01/05 08:39:05;;;;;;;7.72;4.72;;;;;;;-9.07;62.17;95839.44;6229550;28;20045;-68
2024/01/05 08:42:10;;;;;;;4.43;2.78;;;;;;;-9.00;62.93;95836.84;6244884;28;20045;-68
2024/01/05 08:45:16;;;;;;;6.85;4.22;;;;;;;-9.07;62.45;95849.63;6245823;28;20045;-67
2024/01/05 08:48:37;;;;;;;4.32;3.63;;;;;;;-8.98;62.61;95843.63;6244504;28;20053;-67
2024/01/05 08:51:43;;;;;;;6.30;4.43;;;;;;;-9.04;61.77;95848.78;6245173;28;20045;-67
2024/01/05 08:54:47;;;;;;;6.13;3.88;;;;;;;-9.09;62.25;95836.03;6267879;28;20139;-67
2024/01/05 08:57:51;;;;;;;5.80;4.22;;;;;;;-9.10;62.16;95846.25;6269482;28;20041;-69
2024/01/05 09:00:52;;;;;;;8.93;4.05;;;;;;;-9.32;61.87;95813.22;6269463;28;20530;-67
2024/01/05 09:03:57;;;;;;;6.10;3.67;;;;;;;-8.82;61.83;95832.50;6269335;28;20049;-67
2024/01/05 09:07:01;;;;;;;7.57;4.10;;;;;;;-8.72;61.48;95834.97;6269795;28;20087;-68
2024/01/05 09:10:05;;;;;;;6.63;3.65;;;;;;;-8.73;62.08;95844.34;6270007;28;20041;-69
2024/01/05 09:13:09;;;;;;;8.25;4.18;;;;;;;-8.69;61.66;95850.25;6270161;28;20422;-68
2024/01/05 09:16:12;;;;;;;5.68;3.17;;;;;;;-8.77;61.76;95847.78;6269270;28;20044;-69
2024/01/05 09:19:18;;;;;;;4.50;2.88;;;;;;;-8.87;62.47;95851.22;6269816;28;20655;-68
2024/01/05 09:22:21;;;;;;;7.25;3.97;;;;;;;-8.68;62.10;95849.41;6268803;28;20050;-68
2024/01/05 09:25:22;;;;;;;6.18;3.90;;;;;;;-8.67;62.10;95848.56;6268677;28;20139;-69
2024/01/05 09:28:34;;;;;;;4.35;3.33;;;;;;;-8.50;62.03;95856.09;6269606;28;20415;-68
2024/01/05 09:31:37;;;;;;;;;;;;;;;-8.57;61.80;95849.34;6269694;28;20045;-68
2024/01/05 09:34:42;;;;;;;7.10;3.28;;;;;;;-8.55;61.55;95862.91;6269253;28;19920;-68
2024/01/05 09:37:52;;;;;;;6.00;2.90;;;;;;;-8.71;61.44;95857.94;6269313;28;20430;-68
2024/01/05 09:41:15;;;;;;;8.82;4.10;;;;;;;-8.83;61.66;95860.53;6251492;28;20052;-68
2024/01/05 09:44:42;;;;;;;8.10;4.28;;;;;;;-8.83;62.41;95858.00;6251151;28;20053;-68
2024/01/05 09:48:04;;;;;;;5.13;2.90;;;;;;;-8.64;62.34;95867.22;6251368;28;20055;-69
2024/01/05 09:51:30;;;;;;;10.25;4.63;;;;;;;-8.63;61.38;95866.38;6251145;28;20134;-68
2024/01/05 09:54:52;;;;;;;7.43;3.95;;;;;;;-8.72;61.53;95858.78;6226728;28;20053;-68
2024/01/05 09:58:16;;;;;;;9.55;2.92;;;;;;;-8.70;61.81;95863.88;6226103;28;20203;-68
2024/01/05 10:01:42;;;;;;;8.57;3.75;;;;;;;-8.69;62.43;95861.34;6226721;28;20045;-68
2024/01/05 10:05:06;;;;;;;9.05;4.63;;;;;;;-8.69;62.77;95868.97;6213768;28;20041;-67
2024/01/05 10:08:30;;;;;;;2.65;2.33;;;;;;;-8.56;62.35;95845.94;6225852;28;20060;-69
2024/01/05 10:11:54;;;;;;;4.70;3.30;;;;;;;-8.61;62.10;95854.44;6226221;28;20041;-67
2024/01/05 10:15:16;;;;;;;4.22;2.58;;;;;;;-8.64;62.42;95854.47;6226456;28;20069;-68
2024/01/05 10:18:38;;;;;;;3.97;3.20;;;;;;;-8.45;62.89;95869.66;6226314;28;20045;-68
2024/01/05 10:22:16;;;;;;;3.00;2.17;;;;;;;-8.30;62.71;95872.06;6226333;28;20034;-68
2024/01/05 10:25:41;;;;;;;7.55;4.00;;;;;;;-8.36;62.47;95874.66;6225814;28;20045;-68
2024/01/05 10:29:17;;;;;;;5.78;2.80;;;;;;;-8.14;62.96;95883.84;6225852;28;20195;-68
2024/01/05 10:32:41;;;;;;;6.70;3.88;;;;;;;-8.23;62.44;95889.03;6226450;28;20554;-68
2024/01/05 10:36:06;;;;;;;6.28;3.92;;;;;;;-8.47;62.45;95876.47;6226071;28;20526;-68
2024/01/05 10:39:32;;;;;;;5.95;3.53;;;;;;;-8.62;62.84;95875.72;6226724;28;20053;-68
2024/01/05 10:43:13;;;;;;;9.18;4.43;;;;;;;-8.68;62.64;95883.41;6226149;28;20468;-67
2024/01/05 10:46:38;;;;;;;10.13;4.72;;;;;;;-8.83;63.38;95889.44;6225848;28;20052;-66
2024/01/05 10:50:04;;;;;;;5.88;3.47;;;;;;;-8.85;63.52;95890.31;6226037;28;20045;-68
2024/01/05 10:53:28;;;;;;;8.88;4.85;;;;;;;-8.81;63.27;95890.28;6225697;28;20037;-68
2024/01/05 10:56:56;;;;;;;11.93;5.57;;;;;;;-8.81;63.68;95897.91;6261081;28;20053;-68
2024/01/05 11:00:24;;;;;;;14.10;7.80;;;;;;;-8.92;63.70;95894.56;6266942;28;20045;-68
2024/01/05 11:03:50;;;;;;;9.75;5.97;;;;;;;-9.13;64.31;95905.72;6267305;28;20057;-69
2024/01/05 11:07:16;;;;;;;4.07;2.63;;;;;;;-9.06;64.60;95907.41;6266781;28;20049;-67
2024/01/05 11:10:45;;;;;;;6.10;3.78;;;;;;;-9.07;63.80;95900.59;6266726;28;20045;-66
2024/01/05 11:14:35;;;;;;;12.60;4.90;;;;;;;-9.00;64.61;95915.84;6266981;28;20045;-66
2024/01/05 11:18:25;;;;;;;4.85;3.30;;;;;;;-8.89;64.80;95919.22;6266881;28;20041;-66
2024/01/05 11:21:59;;;;;;;4.93;3.17;;;;;;;-9.09;65.20;95920.13;6211944;28;20053;-68
2024/01/05 11:25:24;;;;;;;5.57;3.30;;;;;;;-8.95;65.23;95924.34;6271047;28;20079;-68
2024/01/05 11:28:46;;;;;;;6.65;3.50;;;;;;;-9.01;65.56;95932.00;6270824;28;20746;-67
2024/01/05 11:32:29;;;;;;;6.75;3.83;;;;;;;-8.92;66.10;95925.16;6270838;28;20037;-68
2024/01/05 11:35:55;;;;;;;4.70;2.92;;;;;;;-8.84;65.60;95932.78;6271065;28;20049;-67
2024/01/05 11:39:45;;;;;;;6.47;2.60;;;;;;;-8.79;65.89;95946.38;6270817;28;20044;-69
2024/01/05 11:43:46;;;;;;;8.02;4.45;;;;;;;-8.87;65.92;95951.50;6270713;28;20060;-67
2024/01/05 11:47:08;;;;;;;7.43;4.22;;;;;;;-8.96;65.62;95958.34;6178914;28;20330;-69
2024/01/05 11:50:33;;;;;;;4.15;2.17;;;;;;;-9.13;66.23;95951.59;6193053;28;20052;-68
2024/01/05 11:53:54;;;;;;;12.10;5.55;;;;;;;-9.26;66.25;95944.81;6270367;28;20040;-67
2024/01/05 11:57:20;;;;;;;8.40;5.05;;;;;;;-9.29;66.61;95957.56;6270140;28;20045;-67
2024/01/05 12:00:46;;;;;;;9.10;4.38;;;;;;;-9.54;67.09;95961.88;6269933;28;20094;-68
2024/01/05 12:04:15;;;;;;;5.55;3.97;;;;;;;-9.56;67.33;95964.44;6269883;28;20055;-68
2024/01/05 12:07:36;;;;;;;7.25;4.13;;;;;;;-9.59;67.47;95971.22;6270115;28;20068;-67
2024/01/05 12:11:02;;;;;;;7.35;4.40;;;;;;;-9.55;67.63;95958.47;6270228;28;20051;-67
2024/01/05 12:14:27;;;;;;;6.60;3.47;;;;;;;-9.26;67.23;95971.16;6269947;28;20041;-68
2024/01/05 12:22:21;;;;;;;9.93;5.43;;;;;;;-9.09;67.05;95973.66;6269274;28;20067;-67
2024/01/05 12:25:45;;;;;;;11.63;6.93;;;;;;;-9.22;67.44;95982.19;6269845;28;20163;-67
2024/01/05 12:29:08;;;;;;;9.85;5.57;;;;;;;-9.20;67.71;95980.47;6269857;28;20136;-68
2024/01/05 12:32:33;;;;;;;6.05;4.20;;;;;;;-9.19;67.60;95981.34;6268898;28;20040;-67
2024/01/05 12:35:54;;;;;;;8.18;5.18;;;;;;;-9.24;68.05;95989.00;6269650;28;20048;-68
2024/01/05 12:39:15;;;;;;;7.57;4.28;;;;;;;-9.23;67.92;95993.22;6269617;28;20502;-68
2024/01/05 12:42:39;;;;;;;6.43;5.00;;;;;;;-9.16;68.22;95992.38;6269198;28;20398;-67
2024/01/05 12:46:06;;;;;;;9.27;4.68;;;;;;;-9.14;68.33;96000.88;6269677;28;20480;-69
2024/01/05 12:49:37;;;;;;;8.10;4.72;;;;;;;-9.05;68.13;96000.84;6269074;28;20426;-68
2024/01/05 12:52:59;;;;;;;10.10;5.53;;;;;;;-9.00;68.15;95992.31;6277085;28;20042;-68
2024/01/05 12:56:21;;;;;;;10.48;5.22;;;;;;;-8.99;68.49;95999.13;6293467;28;20098;-69
2024/01/05 12:59:45;;;;;;;5.18;2.13;;;;;;;-8.90;68.14;95994.00;6294329;28;20044;-68
2024/01/05 13:03:18;;;;;;;8.90;5.40;;;;;;;-8.75;68.01;95998.19;6293653;28;20044;-68
2024/01/05 13:06:42;;;;;;;10.60;5.40;;;;;;;-8.76;68.06;95999.91;6293145;28;20055;-67
2024/01/05 13:10:05;;;;;;;9.95;5.15;;;;;;;-8.85;68.07;95992.28;6293391;28;20512;-68
2024/01/05 13:13:31;;;;;;;9.45;4.97;;;;;;;-8.89;67.93;95998.22;6293611;28;20036;-68
2024/01/05 13:16:53;;;;;;;7.67;4.60;;;;;;;-8.74;67.78;95995.66;6293351;28;20040;-68
2024/01/05 13:20:24;;;;;;;6.65;3.75;;;;;;;-8.79;67.75;96017.75;6293412;28;20045;-69
2024/01/05 13:23:55;;;;;;;6.53;3.80;;;;;;;-8.74;67.25;96021.16;6293450;28;20048;-68
2024/01/05 13:27:19;;;;;;;10.15;5.10;;;;;;;-8.84;67.83;96029.66;6292814;28;20052;-68
2024/01/05 13:30:48;;;;;;;10.15;6.05;;;;;;;-8.93;67.96;96039.91;6293465;28;20053;-68
2024/01/05 13:34:14;;;;;;;6.70;3.17;;;;;;;-8.84;67.37;96033.06;6293070;28;20044;-68
2024/01/05 13:37:38;;;;;;;10.32;5.00;;;;;;;-8.94;67.89;96041.59;6293153;28;20048;-68
2024/01/05 13:41:01;;;;;;;7.65;3.85;;;;;;;-8.91;68.03;96033.09;6293081;28;20047;-68
2024/01/05 13:44:25;;;;;;;5.97;3.87;;;;;;;-8.83;67.66;96031.34;6292086;28;20074;-68
2024/01/05 13:47:53;;;;;;;4.75;3.42;;;;;;;-8.72;67.12;96044.91;6292612;28;20055;-68
2024/01/05 13:51:14;;;;;;;8.07;4.53;;;;;;;-8.95;67.88;96056.88;6292874;28;20146;-67
2024/01/05 13:54:36;;;;;;;7.85;4.35;;;;;;;-8.89;67.98;96056.88;6267632;28;20054;-69
2024/01/05 13:58:00;;;;;;;10.63;3.83;;;;;;;-8.82;67.53;96053.47;6227306;28;20053;-70
2024/01/05 14:01:21;;;;;;;9.13;4.22;;;;;;;-8.88;67.65;96066.22;6226425;28;20045;-68
2024/01/05 14:04:43;;;;;;;7.45;4.22;;;;;;;-8.89;67.32;96061.97;6226731;28;20083;-69
2024/01/05 14:08:05;;;;;;;8.88;4.70;;;;;;;-9.00;67.96;96068.78;6226417;28;20041;-68
2024/01/05 14:11:29;;;;;;;9.25;5.30;;;;;;;-8.98;67.62;96062.00;6226459;28;20037;-68
2024/01/05 14:14:55;;;;;;;13.77;6.68;;;;;;;-9.05;67.76;96067.09;6226546;28;20045;-69
2024/01/05 14:18:21;;;;;;;11.10;6.03;;;;;;;-9.11;67.32;96068.81;6226276;28;20049;-68
2024/01/05 14:21:44;;;;;;;9.27;4.38;;;;;;;-9.05;68.08;96072.19;6226461;28;20042;-68
2024/01/05 14:25:06;;;;;;;8.40;5.32;;;;;;;-9.04;68.25;96078.97;6225986;28;20511;-68
2024/01/05 14:28:29;;;;;;;10.45;6.50;;;;;;;-8.99;67.59;96076.44;6226219;28;20053;-68
2024/01/05 14:31:59;;;;;;;6.32;3.63;;;;;;;-9.05;68.04;96076.47;6226365;28;20041;-69
2024/01/05 14:35:23;;;;;;;7.18;4.82;;;;;;;-9.14;68.04;96079.88;6228103;28;20427;-68
2024/01/05 14:38:48;;;;;;;6.20;4.35;;;;;;;-9.24;68.36;96084.97;6226327;28;20132;-68
2024/01/05 14:42:15;;;;;;;5.07;3.78;;;;;;;-9.24;68.44;96079.88;6226247;28;20037;-68
2024/01/05 14:45:39;;;;;;;9.38;5.05;;;;;;;-9.35;68.60;96082.41;6226194;28;20037;-68
2024/01/05 14:49:03;;;;;;;9.98;4.22;;;;;;;-9.22;68.16;96090.91;6228847;28;20045;-68
2024/01/05 14:52:26;;;;;;;7.22;4.93;;;;;;;-9.23;67.83;96086.66;6226364;28;20120;-69
2024/01/05 14:55:50;;;;;;;13.73;7.05;;;;;;;-9.34;68.55;96087.53;6245065;28;20469;-69
2024/01/05 14:59:16;;;;;;;9.63;5.43;;;;;;;-9.19;68.75;96096.84;6271951;28;20043;-68
2024/01/05 15:02:37;;;;;;;9.75;6.07;;;;;;;-9.32;68.50;96083.25;6271465;28;20079;-68